This is the latest recevied weather packets stored in our database for station/object VK4SSH. If no packets are shown the sender has not sent any weather packets the latest 10 day(s).
| Time | Temp. | Humidity | Pressure | Rain* | Wind** | Luminosity | Snow |
|---|---|---|---|---|---|---|---|
| 1777261524 | 22.78° C | 73% | - | 0 mm | - | - | - |
| 1777260924 | 22.22° C | 74% | - | 0 mm | - | - | - |
| 1777260324 | 22.22° C | 77% | - | 0 mm | - | - | - |
| 1777259724 | 22.22° C | 78% | - | 0 mm | - | - | - |
| 1777259124 | 22.22° C | 77% | - | 0 mm | - | - | - |
| 1777258524 | 21.67° C | 78% | - | 0 mm | - | - | - |
| 1777257924 | 21.11° C | 82% | - | 0 mm | - | - | - |
| 1777257324 | 21.11° C | 82% | - | 0 mm | - | - | - |
| 1777256724 | 21.11° C | 82% | - | 0 mm | - | - | - |
| 1777256124 | 20.56° C | 83% | - | 0 mm | - | - | - |
| 1777255524 | 20.56° C | 86% | - | 0.51 mm | - | - | - |
| 1777254924 | 21.11° C | 87% | - | 0.51 mm | - | - | - |
| 1777254324 | 21.11° C | 86% | - | 1.52 mm | - | - | - |
| 1777253724 | 20.56° C | 87% | - | 2.03 mm | - | - | - |
| 1777253124 | 20.56° C | 89% | - | 2.29 mm | - | - | - |
| 1777252524 | 20° C | 94% | - | 2.29 mm | - | - | - |
| 1777251924 | 20° C | 94% | - | 2.03 mm | - | - | - |
| 1777251324 | 20° C | 92% | - | 2.03 mm | - | - | - |
| 1777250724 | 21.11° C | 89% | - | 0.76 mm | - | - | - |
| 1777250124 | 22.22° C | 80% | - | 0.51 mm | - | - | - |
| 1777249524 | 22.22° C | 79% | - | 0 mm | - | - | - |
| 1777248924 | 22.22° C | 79% | - | 0 mm | - | - | - |
| 1777248324 | 22.22° C | 79% | - | 0 mm | - | - | - |
| 1777247724 | 22.22° C | 80% | - | 0 mm | - | - | - |
| 1777247124 | 22.22° C | 79% | - | 0 mm | - | - | - |
* Rain latest hour (hover to see other rain measurements)
** Current wind speed in m/s (hover to see current wind gust speed)